MiSS Ellie — WDJ2256 — position and weather

sailwx.info

Track history (hours):
 
Tides and Currents Weather Stations Pressure Air Temp Water Temp Dewpoint Dewpoint Depression Visibility Wind Speed Wind Dir Waves Ship Positions

MiSS Ellie

Owner: Magnolia Marine Transportation Company, Vicksburg, MS. More information available from US FCC via Universal Licensing System and Coast Guard Vessel Documentation Center.

Last reported at 2017-Sep-21 06:10 UTC. Time now 2017-Sep-21 08:58 UTC.
Position N 29°50' W 091°60'.

Length 33 m.

Type: Towing. MMSI: 367756630.

Date/timePositionNaut miles runAvg speedWind from/ knotsBaromVisibWave heightAir tempDewpointWater temp
2017-Sep-21 06:10N 29°50' W 091°60'1 6.7
2017-Sep-21 06:00N 29°49' W 092°01'3 6.5
2017-Sep-21 05:30N 29°48' W 092°04'3 6.2
2017-Sep-21 05:00N 29°47' W 092°08'3 6.2
2017-Sep-21 04:30N 29°47' W 092°11'3 5.7
2017-Sep-21 04:00N 29°48' W 092°14'2 3.9
2017-Sep-21 03:30N 29°49' W 092°16'3 6.3
2017-Sep-21 02:59N 29°50' W 092°20'41 6.3
2017-Sep-20 20:26N 29°56' W 093°07'3 6.9
2017-Sep-20 20:00N 29°57' W 093°10'4 7.0
2017-Sep-20 19:30N 29°59' W 093°13'3 6.6
2017-Sep-20 19:00N 30°02' W 093°15'4 7.2
2017-Sep-20 18:30N 30°05' W 093°17'2 3.7
2017-Sep-20 18:00N 30°06' W 093°19'0 0.0
2017-Sep-20 17:30N 30°06' W 093°19'0 0.0
2017-Sep-20 17:00N 30°06' W 093°19'0 0.0
2017-Sep-20 16:30N 30°06' W 093°19'0 0.0
2017-Sep-20 16:00N 30°06' W 093°19'0 0.0
2017-Sep-20 15:30N 30°06' W 093°19'0 0.0
2017-Sep-20 15:00N 30°06' W 093°19'4 4.1
2017-Sep-20 14:00N 30°04' W 093°23'4 7.5
2017-Sep-20 13:30N 30°04' W 093°27'4 7.6
2017-Sep-20 13:00N 30°04' W 093°31'7 7.8
2017-Sep-20 12:11N 30°04' W 093°39'4 7.9
2017-Sep-20 11:40N 30°03' W 093°43'68 6.7
2017-Sep-20 01:26N 29°28' W 094°51'511.6
2017-Sep-20 01:00N 29°33' W 094°54'611.5
2017-Sep-20 00:30N 29°38' W 094°58'510.7
2017-Sep-20 00:00N 29°42' W 095°01'6 0.2
2017-Sep-18 13:21N 29°47' W 095°05'2 4.4
2017-Sep-18 12:49N 29°45' W 095°04'3 6.7
2017-Sep-18 12:25N 29°43' W 095°01'5 7.6
2017-Sep-18 11:46N 29°39' W 094°58'2 9.7
2017-Sep-18 11:30N 29°36' W 094°57'71 4.8
2017-Sep-17 20:50N 30°04' W 093°42'2 5.0
2017-Sep-17 20:30N 30°04' W 093°40'3 6.5
2017-Sep-17 20:00N 30°04' W 093°36'3 5.4
2017-Sep-17 19:30N 30°04' W 093°33'3 5.9
2017-Sep-17 19:00N 30°04' W 093°29'2 4.9
2017-Sep-17 18:30N 30°04' W 093°27'3 5.8
2017-Sep-17 18:00N 30°04' W 093°23'2 4.4
2017-Sep-17 17:30N 30°04' W 093°21'2 3.8
2017-Sep-17 17:00N 30°05' W 093°20'2 3.8
2017-Sep-17 16:30N 30°05' W 093°17'1 2.2
2017-Sep-17 16:00N 30°04' W 093°16'1 1.1
2017-Sep-17 15:30N 30°04' W 093°16'0 0.7
2017-Sep-17 15:00N 30°04' W 093°16'1 2.4
2017-Sep-17 14:30N 30°02' W 093°16'2 4.2
2017-Sep-17 14:00N 30°01' W 093°14'2 4.0
2017-Sep-17 13:30N 29°59' W 093°13'2 4.1
2017-Sep-17 13:00N 29°58' W 093°11'2 3.1
2017-Sep-17 12:27N 29°57' W 093°10'2 4.8
2017-Sep-17 12:00N 29°56' W 093°08'3 5.3
2017-Sep-17 11:30N 29°56' W 093°04'4 0.6
2017-Sep-17 04:46N 29°56' W 093°09'2 5.8
2017-Sep-17 04:30N 29°57' W 093°10'3 6.1
2017-Sep-17 04:00N 29°59' W 093°13'2 4.7
2017-Sep-17 03:30N 30°01' W 093°14'2 3.4
2017-Sep-17 03:00N 30°02' W 093°16'3 5.4
2017-Sep-17 02:30N 30°05' W 093°17'2 3.6
2017-Sep-17 02:00N 30°06' W 093°18'3 5.2
2017-Sep-17 01:30N 30°04' W 093°21'3 6.5
2017-Sep-17 01:00N 30°04' W 093°24'4 7.3
2017-Sep-17 00:30N 30°04' W 093°28'4 7.0
2017-Sep-16 23:55N 30°04' W 093°33'4 7.2
2017-Sep-16 23:26N 30°04' W 093°37'5 6.9
2017-Sep-16 22:46N 30°03' W 093°42'69 6.4
2017-Sep-16 11:57N 29°28' W 094°51'4 9.3
2017-Sep-16 11:30N 29°31' W 094°53'5 9.6
2017-Sep-16 11:00N 29°35' W 094°56'5 9.7
2017-Sep-16 10:30N 29°40' W 094°59'4 8.2
2017-Sep-16 09:59N 29°44' W 095°01'3 6.8
2017-Sep-16 09:30N 29°46' W 095°04'2 1.1
2017-Sep-16 07:47N 29°47' W 095°04'0 0.1
2017-Sep-16 07:26N 29°47' W 095°04'1 0.3
2017-Sep-16 04:09N 29°47' W 095°05'1 2.5
2017-Sep-16 03:53N 29°46' W 095°05'2 0.0
2017-Sep-14 06:43N 29°47' W 095°04'1 3.7
2017-Sep-14 06:28N 29°47' W 095°05'1 0.0
2017-Sep-13 00:28N 29°47' W 095°04'0 0.0
2017-Sep-12 23:57N 29°47' W 095°04'1 0.0
2017-Sep-12 07:27N 29°47' W 095°04'1 2.8
2017-Sep-12 07:00N 29°46' W 095°05'4 7.2
2017-Sep-12 06:27N 29°43' W 095°01'4 8.0
2017-Sep-12 05:59N 29°40' W 094°59'4 8.1
2017-Sep-12 05:30N 29°37' W 094°57'5 9.7
2017-Sep-12 05:00N 29°33' W 094°54'69 3.8
2017-Sep-11 11:02N 30°03' W 093°43'0 6.0
2017-Sep-11 10:59N 30°03' W 093°43'3 5.9
2017-Sep-11 10:30N 30°04' W 093°40'3 6.0
2017-Sep-11 09:57N 30°04' W 093°36'2 5.3
2017-Sep-11 09:30N 30°04' W 093°33'3 5.1
2017-Sep-11 09:00N 30°04' W 093°30'3 5.1
2017-Sep-11 08:28N 30°04' W 093°27'2 5.0
2017-Sep-11 08:00N 30°04' W 093°24'2 4.7
2017-Sep-11 07:29N 30°04' W 093°21'3 5.1
2017-Sep-11 06:51N 30°06' W 093°19'1 3.6
2017-Sep-11 06:29N 30°05' W 093°18'  
Track history (hours):
 
Tides and Currents Weather Stations Pressure Air Temp Water Temp Dewpoint Dewpoint Depression Visibility Wind Speed Wind Dir Waves Ship Positions

MiSS Ellie

Owner: Magnolia Marine Transportation Company, Vicksburg, MS. More information available from US FCC via Universal Licensing System and Coast Guard Vessel Documentation Center.

Last reported at 2017-Sep-21 06:10 UTC. Time now 2017-Sep-21 08:58 UTC.
Position N 29°50' W 091°60'.

Length 33 m.

Type: Towing. MMSI: 367756630.

Date/timePositionNaut miles runAvg speedWind from/ knotsBaromVisibWave heightAir tempDewpointWater temp
2017-Sep-21 06:10N 29°50' W 091°60'1 6.7
2017-Sep-21 06:00N 29°49' W 092°01'3 6.5
2017-Sep-21 05:30N 29°48' W 092°04'3 6.2
2017-Sep-21 05:00N 29°47' W 092°08'3 6.2
2017-Sep-21 04:30N 29°47' W 092°11'3 5.7
2017-Sep-21 04:00N 29°48' W 092°14'2 3.9
2017-Sep-21 03:30N 29°49' W 092°16'3 6.3
2017-Sep-21 02:59N 29°50' W 092°20'41 6.3
2017-Sep-20 20:26N 29°56' W 093°07'3 6.9
2017-Sep-20 20:00N 29°57' W 093°10'4 7.0
2017-Sep-20 19:30N 29°59' W 093°13'3 6.6
2017-Sep-20 19:00N 30°02' W 093°15'4 7.2
2017-Sep-20 18:30N 30°05' W 093°17'2 3.7
2017-Sep-20 18:00N 30°06' W 093°19'0 0.0
2017-Sep-20 17:30N 30°06' W 093°19'0 0.0
2017-Sep-20 17:00N 30°06' W 093°19'0 0.0
2017-Sep-20 16:30N 30°06' W 093°19'0 0.0
2017-Sep-20 16:00N 30°06' W 093°19'0 0.0
2017-Sep-20 15:30N 30°06' W 093°19'0 0.0
2017-Sep-20 15:00N 30°06' W 093°19'4 4.1
2017-Sep-20 14:00N 30°04' W 093°23'4 7.5
2017-Sep-20 13:30N 30°04' W 093°27'4 7.6
2017-Sep-20 13:00N 30°04' W 093°31'7 7.8
2017-Sep-20 12:11N 30°04' W 093°39'4 7.9
2017-Sep-20 11:40N 30°03' W 093°43'68 6.7
2017-Sep-20 01:26N 29°28' W 094°51'511.6
2017-Sep-20 01:00N 29°33' W 094°54'611.5
2017-Sep-20 00:30N 29°38' W 094°58'510.7
2017-Sep-20 00:00N 29°42' W 095°01'6 0.2
2017-Sep-18 13:21N 29°47' W 095°05'2 4.4
2017-Sep-18 12:49N 29°45' W 095°04'3 6.7
2017-Sep-18 12:25N 29°43' W 095°01'5 7.6
2017-Sep-18 11:46N 29°39' W 094°58'2 9.7
2017-Sep-18 11:30N 29°36' W 094°57'71 4.8
2017-Sep-17 20:50N 30°04' W 093°42'2 5.0
2017-Sep-17 20:30N 30°04' W 093°40'3 6.5
2017-Sep-17 20:00N 30°04' W 093°36'3 5.4
2017-Sep-17 19:30N 30°04' W 093°33'3 5.9
2017-Sep-17 19:00N 30°04' W 093°29'2 4.9
2017-Sep-17 18:30N 30°04' W 093°27'3 5.8
2017-Sep-17 18:00N 30°04' W 093°23'2 4.4
2017-Sep-17 17:30N 30°04' W 093°21'2 3.8
2017-Sep-17 17:00N 30°05' W 093°20'2 3.8
2017-Sep-17 16:30N 30°05' W 093°17'1 2.2
2017-Sep-17 16:00N 30°04' W 093°16'1 1.1
2017-Sep-17 15:30N 30°04' W 093°16'0 0.7
2017-Sep-17 15:00N 30°04' W 093°16'1 2.4
2017-Sep-17 14:30N 30°02' W 093°16'2 4.2
2017-Sep-17 14:00N 30°01' W 093°14'2 4.0
2017-Sep-17 13:30N 29°59' W 093°13'2 4.1
2017-Sep-17 13:00N 29°58' W 093°11'2 3.1
2017-Sep-17 12:27N 29°57' W 093°10'2 4.8
2017-Sep-17 12:00N 29°56' W 093°08'3 5.3
2017-Sep-17 11:30N 29°56' W 093°04'4 0.6
2017-Sep-17 04:46N 29°56' W 093°09'2 5.8
2017-Sep-17 04:30N 29°57' W 093°10'3 6.1
2017-Sep-17 04:00N 29°59' W 093°13'2 4.7
2017-Sep-17 03:30N 30°01' W 093°14'2 3.4
2017-Sep-17 03:00N 30°02' W 093°16'3 5.4
2017-Sep-17 02:30N 30°05' W 093°17'2 3.6
2017-Sep-17 02:00N 30°06' W 093°18'3 5.2
2017-Sep-17 01:30N 30°04' W 093°21'3 6.5
2017-Sep-17 01:00N 30°04' W 093°24'4 7.3
2017-Sep-17 00:30N 30°04' W 093°28'4 7.0
2017-Sep-16 23:55N 30°04' W 093°33'4 7.2
2017-Sep-16 23:26N 30°04' W 093°37'5 6.9
2017-Sep-16 22:46N 30°03' W 093°42'69 6.4
2017-Sep-16 11:57N 29°28' W 094°51'4 9.3
2017-Sep-16 11:30N 29°31' W 094°53'5 9.6
2017-Sep-16 11:00N 29°35' W 094°56'5 9.7
2017-Sep-16 10:30N 29°40' W 094°59'4 8.2
2017-Sep-16 09:59N 29°44' W 095°01'3 6.8
2017-Sep-16 09:30N 29°46' W 095°04'2 1.1
2017-Sep-16 07:47N 29°47' W 095°04'0 0.1
2017-Sep-16 07:26N 29°47' W 095°04'1 0.3
2017-Sep-16 04:09N 29°47' W 095°05'1 2.5
2017-Sep-16 03:53N 29°46' W 095°05'2 0.0
2017-Sep-14 06:43N 29°47' W 095°04'1 3.7
2017-Sep-14 06:28N 29°47' W 095°05'1 0.0
2017-Sep-13 00:28N 29°47' W 095°04'0 0.0
2017-Sep-12 23:57N 29°47' W 095°04'1 0.0
2017-Sep-12 07:27N 29°47' W 095°04'1 2.8
2017-Sep-12 07:00N 29°46' W 095°05'4 7.2
2017-Sep-12 06:27N 29°43' W 095°01'4 8.0
2017-Sep-12 05:59N 29°40' W 094°59'4 8.1
2017-Sep-12 05:30N 29°37' W 094°57'5 9.7
2017-Sep-12 05:00N 29°33' W 094°54'69 3.8
2017-Sep-11 11:02N 30°03' W 093°43'0 6.0
2017-Sep-11 10:59N 30°03' W 093°43'3 5.9
2017-Sep-11 10:30N 30°04' W 093°40'3 6.0
2017-Sep-11 09:57N 30°04' W 093°36'2 5.3
2017-Sep-11 09:30N 30°04' W 093°33'3 5.1
2017-Sep-11 09:00N 30°04' W 093°30'3 5.1
2017-Sep-11 08:28N 30°04' W 093°27'2 5.0
2017-Sep-11 08:00N 30°04' W 093°24'2 4.7
2017-Sep-11 07:29N 30°04' W 093°21'3 5.1
2017-Sep-11 06:51N 30°06' W 093°19'1 3.6
2017-Sep-11 06:29N 30°05' W 093°18'  

Dump ship's entire track history